createdAt,value
2022-07-29T00:00:59.558Z,9.95
2022-07-29T00:03:26.390Z,11.00
2022-07-29T00:05:54.106Z,10.25
2022-07-29T00:08:21.100Z,9.93
2022-07-29T00:10:48.104Z,9.95
2022-07-29T00:13:14.824Z,12.40
2022-07-29T00:15:41.666Z,10.30
2022-07-29T00:18:08.346Z,10.95
2022-07-29T00:20:35.018Z,11.05
2022-07-29T00:23:01.799Z,10.85
2022-07-29T00:25:28.456Z,11.00
2022-07-29T00:27:55.129Z,9.90
2022-07-29T00:30:21.809Z,10.75
2022-07-29T00:32:48.499Z,10.40
2022-07-29T00:35:33.784Z,11.35
2022-07-29T00:38:00.599Z,11.85
2022-07-29T00:40:29.063Z,13.95
2022-07-29T00:42:55.829Z,12.90
2022-07-29T00:45:23.309Z,11.40
2022-07-29T00:47:50.427Z,11.57
2022-07-29T00:50:20.425Z,11.70
2022-07-29T00:52:50.903Z,11.20
2022-07-29T00:55:18.515Z,10.95
2022-07-29T00:57:45.824Z,11.43
2022-07-29T01:00:19.977Z,12.32
2022-07-29T01:02:51.313Z,11.88
2022-07-29T01:05:22.404Z,11.88
2022-07-29T01:07:52.203Z,13.07
2022-07-29T01:10:20.702Z,12.13
2022-07-29T01:12:50.208Z,11.70
2022-07-29T01:15:17.229Z,11.93
2022-07-29T01:18:08.162Z,12.68
2022-07-29T01:21:02.231Z,12.20
2022-07-29T01:24:14.201Z,12.55
2022-07-29T01:26:40.997Z,13.02
2022-07-29T01:29:17.425Z,10.82
2022-07-29T01:32:03.495Z,12.18
2022-07-29T01:34:55.911Z,12.30
2022-07-29T01:37:29.799Z,12.00
2022-07-29T01:39:58.603Z,12.82
2022-07-29T01:42:39.438Z,12.52
2022-07-29T01:45:22.109Z,11.93
2022-07-29T01:48:21.041Z,14.27
2022-07-29T01:51:17.165Z,11.77
2022-07-29T01:56:25.732Z,12.10
2022-07-29T01:58:56.902Z,10.93
2022-07-29T02:01:28.355Z,11.70
2022-07-29T02:04:00.540Z,11.40
2022-07-29T02:06:33.573Z,12.20
2022-07-29T02:09:01.531Z,11.70
2022-07-29T02:11:28.576Z,12.63
2022-07-29T02:13:58.482Z,12.63
2022-07-29T02:16:29.988Z,10.23
2022-07-29T02:19:00.822Z,11.43
2022-07-29T02:21:29.112Z,12.45
2022-07-29T02:23:59.109Z,13.80
2022-07-29T02:26:27.747Z,12.88
2022-07-29T02:28:57.471Z,13.93
2022-07-29T02:31:27.500Z,12.57
2022-07-29T02:33:55.869Z,10.00
2022-07-29T02:36:24.724Z,13.45
2022-07-29T02:38:52.628Z,13.88
2022-07-29T02:41:30.807Z,12.20
2022-07-29T02:44:06.450Z,11.93
2022-07-29T02:46:39.658Z,13.18
2022-07-29T02:49:37.308Z,13.55
2022-07-29T02:52:09.987Z,11.75
2022-07-29T02:54:47.126Z,12.30
2022-07-29T02:57:29.909Z,12.27
2022-07-29T03:00:00.058Z,13.88
2022-07-29T03:02:29.144Z,12.40
2022-07-29T03:05:01.085Z,12.02
2022-07-29T03:07:28.834Z,11.02
2022-07-29T03:09:55.909Z,14.70
2022-07-29T03:12:23.524Z,15.00
2022-07-29T03:14:50.677Z,13.50
2022-07-29T03:17:17.633Z,12.80
2022-07-29T03:19:44.680Z,12.73
2022-07-29T03:22:11.777Z,14.40
2022-07-29T03:24:39.218Z,13.73
2022-07-29T03:27:06.563Z,12.85
2022-07-29T03:29:34.655Z,12.23
2022-07-29T03:32:04.261Z,12.80
2022-07-29T03:34:32.764Z,12.10
2022-07-29T03:36:59.518Z,14.52
2022-07-29T03:39:30.488Z,12.50
2022-07-29T03:42:00.928Z,12.38
2022-07-29T03:44:28.905Z,12.30
2022-07-29T03:46:58.960Z,12.85
2022-07-29T03:49:27.746Z,14.05
2022-07-29T03:51:55.473Z,12.20
2022-07-29T03:54:22.388Z,12.77
2022-07-29T03:56:53.116Z,11.75
2022-07-29T03:59:21.866Z,12.95
2022-07-29T04:01:49.967Z,13.18
2022-07-29T04:04:18.007Z,12.57
2022-07-29T04:06:48.406Z,13.23
2022-07-29T04:09:15.195Z,12.43
2022-07-29T04:12:02.350Z,12.98
2022-07-29T04:14:31.598Z,12.00
2022-07-29T04:16:59.701Z,13.57
2022-07-29T04:19:29.305Z,13.13
2022-07-29T04:21:56.050Z,12.50
2022-07-29T04:24:23.245Z,14.23
2022-07-29T04:26:50.323Z,12.52
2022-07-29T04:29:17.025Z,13.57
2022-07-29T04:31:44.927Z,12.27
2022-07-29T04:34:12.344Z,12.70
2022-07-29T04:36:39.223Z,13.50
2022-07-29T04:39:06.292Z,11.98
2022-07-29T04:41:33.819Z,11.93
2022-07-29T04:44:07.209Z,13.43
2022-07-29T04:46:35.916Z,12.50
2022-07-29T04:49:04.212Z,14.05
2022-07-29T04:51:33.361Z,13.60
2022-07-29T04:54:00.021Z,12.55
2022-07-29T04:56:26.760Z,12.25
2022-07-29T04:58:56.210Z,15.40
2022-07-29T05:01:25.562Z,13.05
2022-07-29T05:03:53.983Z,12.02
2022-07-29T05:06:23.769Z,13.73
2022-07-29T05:08:50.441Z,10.63
2022-07-29T05:11:21.021Z,11.35
2022-07-29T05:13:49.388Z,14.20
2022-07-29T05:16:16.130Z,14.75
2022-07-29T05:18:44.194Z,10.68
2022-07-29T05:21:10.915Z,11.27
2022-07-29T05:23:37.583Z,10.75
2022-07-29T05:26:04.269Z,11.60
2022-07-29T05:28:34.970Z,11.32
2022-07-29T05:31:01.943Z,11.27
2022-07-29T05:33:35.835Z,12.13
2022-07-29T05:36:08.984Z,10.13
2022-07-29T05:38:36.688Z,9.23
2022-07-29T05:41:04.024Z,9.73
2022-07-29T05:43:32.260Z,9.63
2022-07-29T05:45:59.455Z,9.77
2022-07-29T05:48:26.425Z,10.48
2022-07-29T05:50:53.264Z,10.52
2022-07-29T05:53:20.698Z,10.10
2022-07-29T05:55:48.788Z,9.65
2022-07-29T05:58:15.997Z,9.90
2022-07-29T06:00:43.024Z,10.60
2022-07-29T06:03:09.749Z,10.38
2022-07-29T06:05:39.078Z,10.88
2022-07-29T06:08:08.344Z,7.32
2022-07-29T06:10:37.919Z,6.93
2022-07-29T06:13:04.718Z,10.88
2022-07-29T06:15:31.648Z,7.93
2022-07-29T06:17:59.940Z,10.95
2022-07-29T06:20:30.866Z,7.53
2022-07-29T06:22:58.409Z,7.45
2022-07-29T06:25:30.206Z,7.10
2022-07-29T06:27:58.403Z,6.80
2022-07-29T06:30:25.123Z,5.65
2022-07-29T06:32:54.890Z,7.22
2022-07-29T06:35:38.919Z,8.25
2022-07-29T06:38:30.459Z,8.30
2022-07-29T06:41:01.156Z,7.60
2022-07-29T06:43:30.008Z,9.52
2022-07-29T06:45:57.235Z,8.60
2022-07-29T06:48:23.944Z,6.32
2022-07-29T06:50:50.761Z,5.60
2022-07-29T06:53:17.434Z,5.00
2022-07-29T06:55:44.235Z,5.25
2022-07-29T06:58:15.211Z,5.40
2022-07-29T07:00:41.861Z,7.35
2022-07-29T07:03:08.823Z,5.40
2022-07-29T07:05:35.469Z,3.55
2022-07-29T07:08:04.094Z,3.10
2022-07-29T07:10:30.852Z,3.95
2022-07-29T07:12:57.988Z,2.30
2022-07-29T07:15:38.851Z,3.55
2022-07-29T07:18:07.633Z,3.05
2022-07-29T07:20:37.529Z,3.03
2022-07-29T07:23:05.640Z,3.42
2022-07-29T07:25:33.691Z,3.38
2022-07-29T07:28:01.313Z,2.72
2022-07-29T07:30:30.432Z,2.63
2022-07-29T07:32:57.109Z,3.53
2022-07-29T07:35:23.749Z,2.35
2022-07-29T07:37:50.396Z,4.00
2022-07-29T07:40:18.658Z,3.30
2022-07-29T07:42:45.688Z,3.25
2022-07-29T07:45:16.230Z,5.50
2022-07-29T07:47:43.647Z,4.10
2022-07-29T07:50:18.664Z,3.05
2022-07-29T07:52:55.991Z,3.00
2022-07-29T07:55:22.740Z,2.90
2022-07-29T07:57:49.465Z,3.58
2022-07-29T08:00:17.283Z,5.03
2022-07-29T08:02:46.151Z,2.88
2022-07-29T08:05:20.379Z,3.63
2022-07-29T08:07:48.381Z,3.22
2022-07-29T08:10:38.174Z,3.58
2022-07-29T08:13:09.643Z,3.67
2022-07-29T08:15:36.409Z,3.50
2022-07-29T08:18:08.420Z,3.95
2022-07-29T08:20:36.728Z,3.95
2022-07-29T08:23:05.420Z,3.45
2022-07-29T08:25:32.171Z,2.90
2022-07-29T08:28:02.371Z,3.00
2022-07-29T08:30:30.714Z,3.70
2022-07-29T08:32:58.021Z,4.05
2022-07-29T08:35:33.392Z,4.13
2022-07-29T08:38:01.927Z,4.40
2022-07-29T08:40:30.488Z,3.30
2022-07-29T08:43:09.444Z,3.40
2022-07-29T08:45:54.037Z,3.47
2022-07-29T08:48:24.029Z,3.83
2022-07-29T08:50:56.709Z,4.82
2022-07-29T08:53:27.500Z,3.88
2022-07-29T08:55:55.785Z,3.85
2022-07-29T08:58:25.706Z,3.85
2022-07-29T09:00:57.869Z,4.03
2022-07-29T09:03:26.248Z,3.55
2022-07-29T09:05:55.990Z,6.75
2022-07-29T09:08:26.606Z,3.42
2022-07-29T09:10:54.454Z,5.85
2022-07-29T09:13:21.125Z,3.00
2022-07-29T09:15:47.833Z,2.97
2022-07-29T09:18:34.160Z,3.17
2022-07-29T09:21:19.730Z,3.30
2022-07-29T09:24:07.817Z,3.83
2022-07-29T09:26:42.506Z,4.72
2022-07-29T09:29:11.388Z,3.15
2022-07-29T09:31:40.474Z,3.92
2022-07-29T09:34:10.798Z,3.50
2022-07-29T09:36:56.772Z,3.17
2022-07-29T09:39:32.915Z,3.28
2022-07-29T09:42:04.050Z,3.78
2022-07-29T09:44:42.936Z,3.95
2022-07-29T09:47:09.707Z,2.97
2022-07-29T09:49:50.818Z,2.90
2022-07-29T09:52:17.838Z,3.40
2022-07-29T09:54:45.839Z,3.03
2022-07-29T09:57:30.939Z,2.80
2022-07-29T10:00:03.881Z,3.17
2022-07-29T10:02:39.083Z,2.92
2022-07-29T10:05:17.121Z,2.85
2022-07-29T10:07:46.818Z,2.30
2022-07-29T10:10:26.750Z,4.60
2022-07-29T10:13:06.387Z,3.78
2022-07-29T10:15:44.306Z,3.60
2022-07-29T10:18:12.865Z,3.85
2022-07-29T10:20:40.239Z,3.90
2022-07-29T10:23:07.209Z,2.70
2022-07-29T10:25:34.100Z,3.30
2022-07-29T10:28:06.738Z,2.83
2022-07-29T10:30:34.492Z,3.70
2022-07-29T10:33:28.801Z,3.90
2022-07-29T10:36:18.690Z,4.10
2022-07-29T10:38:48.380Z,4.75
2022-07-29T10:41:44.391Z,3.25
2022-07-29T10:44:26.401Z,3.42
2022-07-29T10:46:54.579Z,4.00
2022-07-29T10:49:27.570Z,3.28
2022-07-29T10:52:07.085Z,2.58
2022-07-29T10:54:44.105Z,3.13
2022-07-29T10:57:54.151Z,3.70
2022-07-29T11:00:28.674Z,3.33
2022-07-29T11:03:01.661Z,3.40
2022-07-29T11:06:12.923Z,2.80
2022-07-29T11:11:29.645Z,3.28
2022-07-29T11:13:57.256Z,4.97
2022-07-29T11:16:25.306Z,4.85
2022-07-29T11:19:14.184Z,4.32
2022-07-29T11:21:53.540Z,3.08
2022-07-29T11:24:30.158Z,4.00
2022-07-29T11:27:31.946Z,2.85
2022-07-29T11:30:03.383Z,4.57
2022-07-29T11:32:48.741Z,4.40
2022-07-29T11:35:36.986Z,3.75
2022-07-29T11:38:23.561Z,3.13
2022-07-29T11:41:23.936Z,3.25
2022-07-29T11:43:59.207Z,3.65
2022-07-29T11:47:01.600Z,3.95
2022-07-29T11:49:31.933Z,4.97
2022-07-29T11:52:06.147Z,3.88
2022-07-29T11:54:57.841Z,4.90
2022-07-29T11:57:36.698Z,3.38
2022-07-29T12:00:12.048Z,3.85
2022-07-29T12:02:48.152Z,4.13
2022-07-29T12:08:14.602Z,4.53
2022-07-29T12:10:42.968Z,2.70
2022-07-29T12:13:11.243Z,3.40
2022-07-29T12:15:47.221Z,4.63
2022-07-29T12:18:19.712Z,3.58
2022-07-29T12:21:06.834Z,4.45
2022-07-29T12:23:34.359Z,3.65
2022-07-29T12:26:07.547Z,5.53
2022-07-29T12:28:40.835Z,3.00
2022-07-29T12:31:15.083Z,5.60
2022-07-29T12:34:06.506Z,4.80
2022-07-29T12:36:36.719Z,4.72
2022-07-29T12:39:04.961Z,4.40
2022-07-29T12:41:33.985Z,3.80
2022-07-29T12:44:00.622Z,4.85
2022-07-29T12:46:27.739Z,5.60
2022-07-29T12:48:56.142Z,3.63
2022-07-29T12:51:33.827Z,4.10
2022-07-29T12:54:06.635Z,4.68
2022-07-29T12:56:42.616Z,3.67
2022-07-29T12:59:20.099Z,6.22
2022-07-29T13:01:50.195Z,3.13
2022-07-29T13:04:33.795Z,4.47
2022-07-29T13:07:04.396Z,3.80
2022-07-29T13:10:22.114Z,3.75
2022-07-29T13:13:11.621Z,4.75
2022-07-29T13:15:43.799Z,3.70
2022-07-29T13:18:29.375Z,5.18
2022-07-29T13:20:56.612Z,5.22
2022-07-29T13:23:23.633Z,4.07
2022-07-29T13:25:51.670Z,4.80
2022-07-29T13:28:18.958Z,4.70
2022-07-29T13:30:46.024Z,4.25
2022-07-29T13:33:13.905Z,4.32
2022-07-29T13:35:40.721Z,6.05
2022-07-29T13:38:08.522Z,4.03
2022-07-29T13:40:36.887Z,4.75
2022-07-29T13:43:04.821Z,4.95
2022-07-29T13:45:31.520Z,4.55
2022-07-29T13:47:58.227Z,4.65
2022-07-29T13:50:27.183Z,4.78
2022-07-29T13:52:54.076Z,4.45
2022-07-29T13:55:20.841Z,6.55
2022-07-29T13:57:48.588Z,6.95
2022-07-29T14:00:22.064Z,5.68
2022-07-29T14:02:48.772Z,3.90
2022-07-29T14:05:15.571Z,7.55
2022-07-29T14:07:42.234Z,6.22
2022-07-29T14:10:09.653Z,5.57
2022-07-29T14:12:36.337Z,5.57
2022-07-29T14:15:03.658Z,5.75
2022-07-29T14:17:30.369Z,6.40
2022-07-29T14:19:59.535Z,5.53
2022-07-29T14:22:26.353Z,4.95
2022-07-29T14:24:53.594Z,4.05
2022-07-29T14:27:20.389Z,5.13
2022-07-29T14:30:05.238Z,4.95
2022-07-29T14:32:32.463Z,6.57
2022-07-29T14:34:59.092Z,9.20
2022-07-29T14:37:25.761Z,6.55
2022-07-29T14:39:52.416Z,5.15
2022-07-29T14:42:19.049Z,6.38
2022-07-29T14:44:45.822Z,5.68
2022-07-29T14:47:13.691Z,4.90
2022-07-29T14:49:40.334Z,5.28
2022-07-29T14:52:07.099Z,7.63
2022-07-29T14:54:33.787Z,5.35
2022-07-29T14:57:00.492Z,5.35
2022-07-29T14:59:28.249Z,5.97
2022-07-29T15:01:56.774Z,7.13
2022-07-29T15:04:24.888Z,4.93
2022-07-29T15:06:51.593Z,6.55
2022-07-29T15:09:19.142Z,5.15
2022-07-29T15:11:45.764Z,5.85
2022-07-29T15:14:12.448Z,7.13
2022-07-29T15:16:43.875Z,5.63
2022-07-29T15:19:14.278Z,6.38
2022-07-29T15:21:48.081Z,6.10
2022-07-29T15:24:26.644Z,7.20
2022-07-29T15:26:53.564Z,6.35
2022-07-29T15:29:20.316Z,5.55
2022-07-29T15:31:47.153Z,5.63
2022-07-29T15:34:14.458Z,5.18
2022-07-29T15:36:52.911Z,6.30
2022-07-29T15:39:22.344Z,6.20
2022-07-29T15:41:49.577Z,6.10
2022-07-29T15:44:18.417Z,6.72
2022-07-29T15:47:03.882Z,5.60
2022-07-29T15:49:48.309Z,6.55
2022-07-29T15:52:26.225Z,7.03
2022-07-29T15:54:56.743Z,5.38
2022-07-29T15:59:54.850Z,4.97
2022-07-29T16:02:21.627Z,5.70
2022-07-29T16:04:48.412Z,5.80
2022-07-29T16:07:15.585Z,5.68
2022-07-29T16:09:43.083Z,5.30
2022-07-29T16:12:14.976Z,5.50
2022-07-29T16:14:43.690Z,6.28
2022-07-29T16:17:14.520Z,5.97
2022-07-29T16:19:43.178Z,5.70
2022-07-29T16:22:10.493Z,5.95
2022-07-29T16:24:37.208Z,6.13
2022-07-29T16:27:03.998Z,6.97
2022-07-29T16:29:31.190Z,6.75
2022-07-29T16:31:58.010Z,7.97
2022-07-29T16:34:24.665Z,7.45
2022-07-29T16:36:51.290Z,6.18
2022-07-29T16:39:17.995Z,7.00
2022-07-29T16:41:45.770Z,7.80
2022-07-29T16:44:15.980Z,6.47
2022-07-29T16:46:44.907Z,10.05
2022-07-29T16:49:11.970Z,9.63
2022-07-29T16:51:43.925Z,7.95
2022-07-29T16:54:10.889Z,6.10
2022-07-29T16:56:37.806Z,7.45
2022-07-29T16:59:04.468Z,8.10
2022-07-29T17:01:31.194Z,8.30
2022-07-29T17:04:07.002Z,6.80
2022-07-29T17:06:38.704Z,7.28
2022-07-29T17:09:08.173Z,7.47
2022-07-29T17:11:53.623Z,7.28
2022-07-29T17:14:27.084Z,7.22
2022-07-29T17:17:01.360Z,7.13
2022-07-29T17:22:04.708Z,7.78
2022-07-29T17:24:36.031Z,11.98
2022-07-29T17:27:02.833Z,7.43
2022-07-29T17:29:29.528Z,8.13
2022-07-29T17:31:57.823Z,7.25
2022-07-29T17:34:24.475Z,9.63
2022-07-29T17:36:51.142Z,9.52
2022-07-29T17:39:17.885Z,12.30
2022-07-29T17:41:47.072Z,8.70
2022-07-29T17:44:14.407Z,10.55
2022-07-29T17:46:41.505Z,8.73
2022-07-29T17:49:08.377Z,7.72
2022-07-29T17:51:35.208Z,11.13
2022-07-29T17:54:01.947Z,9.63
2022-07-29T17:56:30.902Z,8.00
2022-07-29T17:59:01.163Z,9.02
2022-07-29T18:01:31.776Z,9.88
2022-07-29T18:04:00.160Z,7.65
2022-07-29T18:06:27.057Z,8.10
2022-07-29T18:08:55.110Z,9.13
2022-07-29T18:11:23.868Z,10.45
2022-07-29T18:13:50.657Z,8.02
2022-07-29T18:16:18.228Z,9.52
2022-07-29T18:18:45.795Z,8.32
2022-07-29T18:21:15.130Z,9.07
2022-07-29T18:23:43.461Z,7.68
2022-07-29T18:26:13.141Z,9.10
2022-07-29T18:28:43.183Z,9.43
2022-07-29T18:31:10.126Z,11.00
2022-07-29T18:33:36.842Z,9.60
2022-07-29T18:36:10.835Z,9.70
2022-07-29T18:38:40.315Z,9.38
2022-07-29T18:41:09.640Z,8.95
2022-07-29T18:43:37.052Z,9.40
2022-07-29T18:46:06.369Z,8.77
2022-07-29T18:48:37.244Z,9.18
2022-07-29T18:51:09.114Z,9.55
2022-07-29T18:53:36.896Z,8.27
2022-07-29T18:56:05.580Z,8.65
2022-07-29T18:58:33.450Z,11.18
2022-07-29T19:01:01.973Z,9.02
2022-07-29T19:03:28.691Z,11.80
2022-07-29T19:05:55.541Z,9.57
2022-07-29T19:08:22.177Z,9.23
2022-07-29T19:10:48.922Z,8.80
2022-07-29T19:13:15.588Z,10.68
2022-07-29T19:15:46.389Z,8.05
2022-07-29T19:18:17.419Z,7.63
2022-07-29T19:20:44.227Z,8.07
2022-07-29T19:23:11.082Z,8.13
2022-07-29T19:25:53.790Z,8.95
2022-07-29T19:28:21.916Z,8.95
2022-07-29T19:30:50.253Z,11.30
2022-07-29T19:33:18.963Z,9.15
2022-07-29T19:35:47.616Z,10.73
2022-07-29T19:38:16.341Z,8.95
2022-07-29T19:40:44.115Z,7.88
2022-07-29T19:43:51.467Z,10.00
2022-07-29T19:46:04.518Z,9.02
2022-07-29T19:48:31.629Z,8.55
2022-07-29T19:50:58.393Z,9.23
2022-07-29T19:53:25.058Z,8.13
2022-07-29T19:55:51.862Z,9.48
2022-07-29T19:58:18.567Z,8.70
2022-07-29T20:00:49.261Z,8.88
2022-07-29T20:03:16.149Z,7.28
2022-07-29T20:05:43.419Z,9.32
2022-07-29T20:08:14.669Z,7.30
2022-07-29T20:10:41.327Z,10.68
2022-07-29T20:13:08.043Z,8.70
2022-07-29T20:15:34.980Z,8.50
2022-07-29T20:18:01.686Z,9.98
2022-07-29T20:20:30.008Z,9.30
2022-07-29T20:22:57.159Z,7.53
2022-07-29T20:25:24.212Z,9.05
2022-07-29T20:27:52.459Z,10.40
2022-07-29T20:30:22.221Z,8.05
2022-07-29T20:32:52.339Z,8.40
2022-07-29T20:35:25.893Z,8.70
2022-07-29T20:37:56.169Z,7.07
2022-07-29T20:40:26.989Z,9.15
2022-07-29T20:42:56.055Z,8.80
2022-07-29T20:45:25.372Z,6.82
2022-07-29T20:47:52.932Z,7.93
2022-07-29T20:50:23.944Z,7.22
2022-07-29T20:52:52.894Z,8.50
2022-07-29T20:55:20.183Z,8.65
2022-07-29T20:57:46.856Z,8.38
2022-07-29T21:00:16.458Z,8.10
2022-07-29T21:02:43.354Z,8.70
2022-07-29T21:05:10.764Z,8.35
2022-07-29T21:07:37.458Z,7.03
2022-07-29T21:10:04.748Z,7.85
2022-07-29T21:12:31.761Z,8.02
2022-07-29T21:14:58.452Z,7.07
2022-07-29T21:17:25.290Z,6.53
2022-07-29T21:19:53.324Z,10.30
2022-07-29T21:22:23.068Z,7.50
2022-07-29T21:24:50.369Z,7.22
2022-07-29T21:27:38.469Z,7.70
2022-07-29T21:30:07.802Z,6.03
2022-07-29T21:32:34.666Z,7.45
2022-07-29T21:35:01.461Z,8.18
2022-07-29T21:37:28.498Z,7.10
2022-07-29T21:39:55.226Z,6.63
2022-07-29T21:42:21.952Z,6.50
2022-07-29T21:44:48.862Z,7.43
2022-07-29T21:47:15.552Z,6.97
2022-07-29T21:49:42.764Z,6.47
2022-07-29T21:52:11.842Z,7.47
2022-07-29T21:54:39.617Z,8.00
2022-07-29T21:57:07.163Z,7.78
2022-07-29T21:59:34.438Z,8.15
2022-07-29T22:02:01.326Z,9.02
2022-07-29T22:04:29.282Z,7.38
2022-07-29T22:06:56.764Z,7.00
2022-07-29T22:09:24.139Z,7.55
2022-07-29T22:11:51.235Z,6.65
2022-07-29T22:14:18.682Z,7.43
2022-07-29T22:16:46.535Z,7.55
2022-07-29T22:19:14.325Z,8.75
2022-07-29T22:21:41.484Z,8.23
2022-07-29T22:24:09.901Z,6.57
2022-07-29T22:26:36.651Z,8.07
2022-07-29T22:29:03.331Z,6.72
2022-07-29T22:31:30.126Z,6.18
2022-07-29T22:33:56.757Z,7.85
2022-07-29T22:36:26.003Z,6.88
2022-07-29T22:38:52.660Z,7.18
2022-07-29T22:41:19.352Z,8.95
2022-07-29T22:43:46.089Z,6.68
2022-07-29T22:46:12.880Z,7.05
2022-07-29T22:48:39.655Z,6.90
2022-07-29T22:51:06.731Z,6.45
2022-07-29T22:53:33.397Z,6.00
2022-07-29T22:56:00.049Z,8.50
2022-07-29T22:58:26.807Z,6.40
2022-07-29T23:00:53.997Z,6.32
2022-07-29T23:03:23.114Z,6.90
2022-07-29T23:05:51.706Z,8.07
2022-07-29T23:08:19.594Z,9.48
2022-07-29T23:10:46.715Z,7.97
2022-07-29T23:13:14.205Z,7.20
2022-07-29T23:15:41.342Z,7.80
2022-07-29T23:18:08.172Z,6.50
2022-07-29T23:20:35.511Z,6.18
2022-07-29T23:23:02.247Z,6.15
2022-07-29T23:25:28.954Z,6.95
2022-07-29T23:27:55.760Z,8.82
2022-07-29T23:30:22.590Z,5.95
2022-07-29T23:32:49.342Z,6.28
2022-07-29T23:35:16.107Z,6.93
2022-07-29T23:37:42.810Z,6.60
2022-07-29T23:40:14.434Z,7.03
2022-07-29T23:42:42.809Z,5.68
2022-07-29T23:45:11.083Z,7.70
2022-07-29T23:47:37.905Z,8.77
2022-07-29T23:50:06.468Z,7.68
2022-07-29T23:52:33.221Z,7.65
2022-07-29T23:55:37.014Z,7.50
2022-07-29T23:57:49.291Z,6.88
